Lake Mead Rancheros, Arizona
Current Conditions -  °F | °C
As of 10:51 PM on Saturday 22 Nov 2014 (Local Time) from KIGM Reporting Station
Clear Clear  
Wind Chill: 40°   Ceiling: Unl
Heat Index: 45°   Visibility: 10mi
Dew Point: 24°   Wind: 9mph
Humidity: 44%   Direction: 70°ENE
Pressure: 29.96"   Gusts: NA
Location:  35.2036°N, 114.02°W
Report Text: KIGM 230551Z AUTO 07008KT 10SM CLR 07/M04 A2996 RMK AO2 SLP105 T00721044 10167 20067 53005
Loading
Personal Weather Stations






























Interactive Weather Map New forecast layout! Learn more

10-Day Weather Forecast

Advertisements
Track Severe Weather on mobile